sensor_id;sensor_type;location;lat;lon;timestamp;P1;durP1;ratioP1;P2;durP2;ratioP2
21175;SDS011;10746;50.178;8.186;2023-06-14T00:00:36;6.35;;;4.28;;
21175;SDS011;10746;50.178;8.186;2023-06-14T00:03:06;9.90;;;4.50;;
21175;SDS011;10746;50.178;8.186;2023-06-14T00:05:33;15.02;;;4.90;;
21175;SDS011;10746;50.178;8.186;2023-06-14T00:08:05;9.52;;;4.78;;
21175;SDS011;10746;50.178;8.186;2023-06-14T00:10:33;5.40;;;4.78;;
21175;SDS011;10746;50.178;8.186;2023-06-14T00:13:00;5.93;;;4.88;;
21175;SDS011;10746;50.178;8.186;2023-06-14T00:15:27;6.60;;;4.90;;
21175;SDS011;10746;50.178;8.186;2023-06-14T00:17:54;6.47;;;4.50;;
21175;SDS011;10746;50.178;8.186;2023-06-14T00:20:21;4.60;;;4.10;;
21175;SDS011;10746;50.178;8.186;2023-06-14T00:22:48;5.60;;;4.63;;
21175;SDS011;10746;50.178;8.186;2023-06-14T00:25:16;8.18;;;4.35;;
21175;SDS011;10746;50.178;8.186;2023-06-14T00:27:43;6.80;;;4.50;;
21175;SDS011;10746;50.178;8.186;2023-06-14T00:30:10;7.22;;;4.57;;
21175;SDS011;10746;50.178;8.186;2023-06-14T00:32:38;6.05;;;4.68;;
21175;SDS011;10746;50.178;8.186;2023-06-14T00:35:04;5.97;;;4.68;;
21175;SDS011;10746;50.178;8.186;2023-06-14T00:37:33;9.13;;;4.53;;
21175;SDS011;10746;50.178;8.186;2023-06-14T00:40:00;8.10;;;4.68;;
21175;SDS011;10746;50.178;8.186;2023-06-14T00:42:28;7.80;;;4.72;;
21175;SDS011;10746;50.178;8.186;2023-06-14T00:44:55;6.15;;;4.18;;
21175;SDS011;10746;50.178;8.186;2023-06-14T00:47:22;8.00;;;4.75;;
21175;SDS011;10746;50.178;8.186;2023-06-14T00:49:49;5.10;;;4.20;;
21175;SDS011;10746;50.178;8.186;2023-06-14T00:52:17;6.95;;;4.45;;
21175;SDS011;10746;50.178;8.186;2023-06-14T00:54:44;4.90;;;4.40;;
21175;SDS011;10746;50.178;8.186;2023-06-14T00:57:11;5.07;;;4.15;;
21175;SDS011;10746;50.178;8.186;2023-06-14T00:59:42;7.85;;;4.50;;
21175;SDS011;10746;50.178;8.186;2023-06-14T01:02:10;9.25;;;4.22;;
21175;SDS011;10746;50.178;8.186;2023-06-14T01:04:37;12.43;;;4.75;;
21175;SDS011;10746;50.178;8.186;2023-06-14T01:07:07;6.07;;;4.25;;
21175;SDS011;10746;50.178;8.186;2023-06-14T01:09:43;4.80;;;3.88;;
21175;SDS011;10746;50.178;8.186;2023-06-14T01:12:15;6.50;;;4.20;;
21175;SDS011;10746;50.178;8.186;2023-06-14T01:14:52;7.57;;;4.53;;
21175;SDS011;10746;50.178;8.186;2023-06-14T01:17:22;5.93;;;4.05;;
21175;SDS011;10746;50.178;8.186;2023-06-14T01:19:52;7.38;;;4.60;;
21175;SDS011;10746;50.178;8.186;2023-06-14T01:22:23;8.70;;;4.50;;
21175;SDS011;10746;50.178;8.186;2023-06-14T01:24:53;6.63;;;4.25;;
21175;SDS011;10746;50.178;8.186;2023-06-14T01:27:20;7.68;;;4.32;;
21175;SDS011;10746;50.178;8.186;2023-06-14T01:29:49;6.07;;;4.43;;
21175;SDS011;10746;50.178;8.186;2023-06-14T01:32:16;6.07;;;4.32;;
21175;SDS011;10746;50.178;8.186;2023-06-14T01:34:44;5.00;;;4.50;;
21175;SDS011;10746;50.178;8.186;2023-06-14T01:37:11;5.75;;;4.75;;
21175;SDS011;10746;50.178;8.186;2023-06-14T01:39:38;4.60;;;4.15;;
21175;SDS011;10746;50.178;8.186;2023-06-14T01:42:07;7.40;;;4.57;;
21175;SDS011;10746;50.178;8.186;2023-06-14T01:44:34;7.68;;;4.53;;
21175;SDS011;10746;50.178;8.186;2023-06-14T01:47:00;5.40;;;4.32;;
21175;SDS011;10746;50.178;8.186;2023-06-14T01:49:27;4.55;;;4.10;;
21175;SDS011;10746;50.178;8.186;2023-06-14T01:51:54;6.28;;;4.32;;
21175;SDS011;10746;50.178;8.186;2023-06-14T01:54:21;5.45;;;4.30;;
21175;SDS011;10746;50.178;8.186;2023-06-14T01:56:47;5.60;;;4.70;;
21175;SDS011;10746;50.178;8.186;2023-06-14T01:59:16;7.30;;;4.28;;
21175;SDS011;10746;50.178;8.186;2023-06-14T02:01:42;5.10;;;4.55;;
21175;SDS011;10746;50.178;8.186;2023-06-14T02:04:11;10.30;;;4.68;;
21175;SDS011;10746;50.178;8.186;2023-06-14T02:06:38;5.25;;;4.13;;
21175;SDS011;10746;50.178;8.186;2023-06-14T02:09:04;6.55;;;4.78;;
21175;SDS011;10746;50.178;8.186;2023-06-14T02:11:31;5.07;;;4.45;;
21175;SDS011;10746;50.178;8.186;2023-06-14T02:13:58;11.80;;;4.10;;
21175;SDS011;10746;50.178;8.186;2023-06-14T02:16:27;9.35;;;4.75;;
21175;SDS011;10746;50.178;8.186;2023-06-14T02:18:54;4.40;;;4.00;;
21175;SDS011;10746;50.178;8.186;2023-06-14T02:21:22;4.78;;;4.30;;
21175;SDS011;10746;50.178;8.186;2023-06-14T02:23:48;9.68;;;4.50;;
21175;SDS011;10746;50.178;8.186;2023-06-14T02:29:40;7.68;;;4.65;;
21175;SDS011;10746;50.178;8.186;2023-06-14T02:32:08;9.70;;;4.50;;
21175;SDS011;10746;50.178;8.186;2023-06-14T02:34:35;5.28;;;4.25;;
21175;SDS011;10746;50.178;8.186;2023-06-14T02:37:05;6.85;;;4.72;;
21175;SDS011;10746;50.178;8.186;2023-06-14T02:39:33;6.07;;;4.82;;
21175;SDS011;10746;50.178;8.186;2023-06-14T02:42:02;6.95;;;4.70;;
21175;SDS011;10746;50.178;8.186;2023-06-14T02:44:29;4.95;;;4.45;;
21175;SDS011;10746;50.178;8.186;2023-06-14T02:46:55;5.55;;;4.57;;
21175;SDS011;10746;50.178;8.186;2023-06-14T02:49:25;7.50;;;4.70;;
21175;SDS011;10746;50.178;8.186;2023-06-14T02:51:52;6.82;;;4.55;;
21175;SDS011;10746;50.178;8.186;2023-06-14T02:54:19;9.70;;;4.90;;
21175;SDS011;10746;50.178;8.186;2023-06-14T02:56:46;5.18;;;4.68;;
21175;SDS011;10746;50.178;8.186;2023-06-14T02:59:13;7.38;;;4.53;;
21175;SDS011;10746;50.178;8.186;2023-06-14T03:01:40;7.22;;;4.28;;
21175;SDS011;10746;50.178;8.186;2023-06-14T03:04:07;5.90;;;4.60;;
21175;SDS011;10746;50.178;8.186;2023-06-14T03:06:36;7.00;;;4.40;;
21175;SDS011;10746;50.178;8.186;2023-06-14T03:09:04;7.63;;;4.53;;
21175;SDS011;10746;50.178;8.186;2023-06-14T03:11:32;9.90;;;4.32;;
21175;SDS011;10746;50.178;8.186;2023-06-14T03:13:59;8.05;;;4.90;;
21175;SDS011;10746;50.178;8.186;2023-06-14T03:16:28;5.97;;;4.93;;
21175;SDS011;10746;50.178;8.186;2023-06-14T03:18:56;6.50;;;4.63;;
21175;SDS011;10746;50.178;8.186;2023-06-14T03:21:23;7.18;;;4.40;;
21175;SDS011;10746;50.178;8.186;2023-06-14T03:23:52;9.65;;;4.82;;
21175;SDS011;10746;50.178;8.186;2023-06-14T03:26:19;10.18;;;4.75;;
21175;SDS011;10746;50.178;8.186;2023-06-14T03:28:46;5.53;;;4.75;;
21175;SDS011;10746;50.178;8.186;2023-06-14T03:31:14;8.15;;;4.60;;
21175;SDS011;10746;50.178;8.186;2023-06-14T03:33:41;5.82;;;4.60;;
21175;SDS011;10746;50.178;8.186;2023-06-14T03:36:08;6.13;;;4.82;;
21175;SDS011;10746;50.178;8.186;2023-06-14T03:38:35;6.35;;;4.75;;
21175;SDS011;10746;50.178;8.186;2023-06-14T03:41:03;6.35;;;5.07;;
21175;SDS011;10746;50.178;8.186;2023-06-14T03:43:30;6.72;;;5.00;;
21175;SDS011;10746;50.178;8.186;2023-06-14T03:45:56;8.85;;;4.88;;
21175;SDS011;10746;50.178;8.186;2023-06-14T03:48:23;7.50;;;5.13;;
21175;SDS011;10746;50.178;8.186;2023-06-14T03:50:50;5.68;;;4.45;;
21175;SDS011;10746;50.178;8.186;2023-06-14T03:53:18;6.22;;;4.40;;
21175;SDS011;10746;50.178;8.186;2023-06-14T03:55:45;8.05;;;4.82;;
21175;SDS011;10746;50.178;8.186;2023-06-14T03:58:14;8.10;;;5.15;;
21175;SDS011;10746;50.178;8.186;2023-06-14T04:00:42;6.00;;;4.75;;
21175;SDS011;10746;50.178;8.186;2023-06-14T04:03:10;6.13;;;4.38;;
21175;SDS011;10746;50.178;8.186;2023-06-14T04:05:38;8.50;;;4.93;;
21175;SDS011;10746;50.178;8.186;2023-06-14T04:08:07;6.53;;;4.80;;
21175;SDS011;10746;50.178;8.186;2023-06-14T04:10:34;10.57;;;5.22;;
21175;SDS011;10746;50.178;8.186;2023-06-14T04:13:00;10.07;;;4.95;;
21175;SDS011;10746;50.178;8.186;2023-06-14T04:15:28;9.15;;;4.93;;
21175;SDS011;10746;50.178;8.186;2023-06-14T04:17:57;10.15;;;5.15;;
21175;SDS011;10746;50.178;8.186;2023-06-14T04:20:23;13.10;;;5.45;;
21175;SDS011;10746;50.178;8.186;2023-06-14T04:22:50;8.38;;;5.35;;
21175;SDS011;10746;50.178;8.186;2023-06-14T04:25:17;8.60;;;4.68;;
21175;SDS011;10746;50.178;8.186;2023-06-14T04:27:45;5.40;;;4.43;;
21175;SDS011;10746;50.178;8.186;2023-06-14T04:30:12;9.02;;;4.93;;
21175;SDS011;10746;50.178;8.186;2023-06-14T04:32:40;6.28;;;5.15;;
21175;SDS011;10746;50.178;8.186;2023-06-14T04:35:07;6.35;;;5.00;;
21175;SDS011;10746;50.178;8.186;2023-06-14T04:37:35;5.10;;;4.55;;
21175;SDS011;10746;50.178;8.186;2023-06-14T04:40:05;8.10;;;4.45;;
21175;SDS011;10746;50.178;8.186;2023-06-14T04:42:33;6.60;;;5.00;;
21175;SDS011;10746;50.178;8.186;2023-06-14T04:45:02;7.35;;;4.60;;
21175;SDS011;10746;50.178;8.186;2023-06-14T04:47:29;6.40;;;4.20;;
21175;SDS011;10746;50.178;8.186;2023-06-14T04:49:58;7.45;;;4.55;;
21175;SDS011;10746;50.178;8.186;2023-06-14T04:52:25;4.80;;;4.35;;
21175;SDS011;10746;50.178;8.186;2023-06-14T04:54:54;5.10;;;3.97;;
21175;SDS011;10746;50.178;8.186;2023-06-14T04:57:21;6.15;;;4.30;;
21175;SDS011;10746;50.178;8.186;2023-06-14T04:59:50;9.32;;;4.30;;
21175;SDS011;10746;50.178;8.186;2023-06-14T05:02:20;4.75;;;3.90;;
21175;SDS011;10746;50.178;8.186;2023-06-14T05:04:48;9.65;;;3.78;;
21175;SDS011;10746;50.178;8.186;2023-06-14T05:07:17;4.28;;;3.30;;
21175;SDS011;10746;50.178;8.186;2023-06-14T05:09:44;6.20;;;4.38;;
21175;SDS011;10746;50.178;8.186;2023-06-14T05:12:11;5.30;;;3.63;;
21175;SDS011;10746;50.178;8.186;2023-06-14T05:14:38;5.57;;;3.67;;
21175;SDS011;10746;50.178;8.186;2023-06-14T05:17:05;10.40;;;3.90;;
21175;SDS011;10746;50.178;8.186;2023-06-14T05:19:32;7.20;;;3.90;;
21175;SDS011;10746;50.178;8.186;2023-06-14T05:21:59;10.50;;;3.80;;
21175;SDS011;10746;50.178;8.186;2023-06-14T05:24:29;6.68;;;4.18;;
21175;SDS011;10746;50.178;8.186;2023-06-14T05:26:57;11.25;;;3.97;;
21175;SDS011;10746;50.178;8.186;2023-06-14T05:29:24;5.70;;;3.67;;
21175;SDS011;10746;50.178;8.186;2023-06-14T05:31:51;6.35;;;4.20;;
21175;SDS011;10746;50.178;8.186;2023-06-14T05:34:17;9.45;;;4.05;;
21175;SDS011;10746;50.178;8.186;2023-06-14T05:36:44;9.13;;;3.90;;
21175;SDS011;10746;50.178;8.186;2023-06-14T05:39:11;6.65;;;3.90;;
21175;SDS011;10746;50.178;8.186;2023-06-14T05:41:41;6.72;;;3.60;;
21175;SDS011;10746;50.178;8.186;2023-06-14T05:44:07;5.38;;;3.60;;
21175;SDS011;10746;50.178;8.186;2023-06-14T05:46:35;6.35;;;3.35;;
21175;SDS011;10746;50.178;8.186;2023-06-14T05:49:02;8.18;;;3.92;;
21175;SDS011;10746;50.178;8.186;2023-06-14T05:51:28;4.95;;;3.75;;
21175;SDS011;10746;50.178;8.186;2023-06-14T05:53:55;4.97;;;3.35;;
21175;SDS011;10746;50.178;8.186;2023-06-14T05:56:22;3.95;;;3.35;;
21175;SDS011;10746;50.178;8.186;2023-06-14T05:58:50;10.68;;;3.50;;
21175;SDS011;10746;50.178;8.186;2023-06-14T06:01:17;14.60;;;3.58;;
21175;SDS011;10746;50.178;8.186;2023-06-14T06:03:44;9.32;;;4.28;;
21175;SDS011;10746;50.178;8.186;2023-06-14T06:06:12;7.50;;;3.78;;
21175;SDS011;10746;50.178;8.186;2023-06-14T06:08:40;5.20;;;3.17;;
21175;SDS011;10746;50.178;8.186;2023-06-14T06:11:11;4.07;;;3.67;;
21175;SDS011;10746;50.178;8.186;2023-06-14T06:13:38;5.85;;;3.25;;
21175;SDS011;10746;50.178;8.186;2023-06-14T06:16:07;4.13;;;3.33;;
21175;SDS011;10746;50.178;8.186;2023-06-14T06:18:34;7.68;;;3.50;;
21175;SDS011;10746;50.178;8.186;2023-06-14T06:21:01;7.75;;;3.70;;
21175;SDS011;10746;50.178;8.186;2023-06-14T06:23:29;4.43;;;3.20;;
21175;SDS011;10746;50.178;8.186;2023-06-14T06:25:56;9.52;;;3.25;;
21175;SDS011;10746;50.178;8.186;2023-06-14T06:28:22;4.45;;;3.55;;
21175;SDS011;10746;50.178;8.186;2023-06-14T06:30:49;8.63;;;3.20;;
21175;SDS011;10746;50.178;8.186;2023-06-14T06:33:17;9.10;;;3.58;;
21175;SDS011;10746;50.178;8.186;2023-06-14T06:35:44;6.18;;;3.47;;
21175;SDS011;10746;50.178;8.186;2023-06-14T06:38:11;6.18;;;3.35;;
21175;SDS011;10746;50.178;8.186;2023-06-14T06:40:38;6.00;;;3.47;;
21175;SDS011;10746;50.178;8.186;2023-06-14T06:43:05;5.68;;;3.33;;
21175;SDS011;10746;50.178;8.186;2023-06-14T06:45:32;6.72;;;3.00;;
21175;SDS011;10746;50.178;8.186;2023-06-14T06:47:58;6.78;;;3.17;;
21175;SDS011;10746;50.178;8.186;2023-06-14T06:50:26;4.88;;;2.90;;
21175;SDS011;10746;50.178;8.186;2023-06-14T06:52:53;6.82;;;3.10;;
21175;SDS011;10746;50.178;8.186;2023-06-14T06:55:20;4.82;;;2.97;;
21175;SDS011;10746;50.178;8.186;2023-06-14T06:57:47;5.40;;;2.78;;
21175;SDS011;10746;50.178;8.186;2023-06-14T07:00:15;2.60;;;2.40;;
21175;SDS011;10746;50.178;8.186;2023-06-14T07:02:42;4.15;;;2.97;;
21175;SDS011;10746;50.178;8.186;2023-06-14T07:05:09;4.10;;;2.47;;
21175;SDS011;10746;50.178;8.186;2023-06-14T07:07:37;5.50;;;2.70;;
21175;SDS011;10746;50.178;8.186;2023-06-14T07:10:05;14.45;;;2.90;;
21175;SDS011;10746;50.178;8.186;2023-06-14T07:12:32;6.30;;;2.60;;
21175;SDS011;10746;50.178;8.186;2023-06-14T07:15:04;3.20;;;2.90;;
21175;SDS011;10746;50.178;8.186;2023-06-14T07:17:32;3.58;;;2.58;;
21175;SDS011;10746;50.178;8.186;2023-06-14T07:20:01;5.22;;;2.35;;
21175;SDS011;10746;50.178;8.186;2023-06-14T07:22:38;2.53;;;2.33;;
21175;SDS011;10746;50.178;8.186;2023-06-14T07:25:07;4.40;;;2.70;;
21175;SDS011;10746;50.178;8.186;2023-06-14T07:27:34;3.92;;;2.25;;
21175;SDS011;10746;50.178;8.186;2023-06-14T07:30:01;11.38;;;2.65;;
21175;SDS011;10746;50.178;8.186;2023-06-14T07:32:28;4.18;;;2.78;;
21175;SDS011;10746;50.178;8.186;2023-06-14T07:34:55;4.35;;;2.80;;
21175;SDS011;10746;50.178;8.186;2023-06-14T07:37:21;2.40;;;2.20;;
21175;SDS011;10746;50.178;8.186;2023-06-14T07:39:49;2.95;;;2.28;;
21175;SDS011;10746;50.178;8.186;2023-06-14T07:42:16;4.90;;;2.30;;
21175;SDS011;10746;50.178;8.186;2023-06-14T07:44:43;3.45;;;2.10;;
21175;SDS011;10746;50.178;8.186;2023-06-14T07:47:10;5.88;;;1.85;;
21175;SDS011;10746;50.178;8.186;2023-06-14T07:49:36;1.65;;;1.60;;
21175;SDS011;10746;50.178;8.186;2023-06-14T07:52:03;1.98;;;1.70;;
21175;SDS011;10746;50.178;8.186;2023-06-14T07:54:31;5.57;;;1.90;;
21175;SDS011;10746;50.178;8.186;2023-06-14T07:56:59;6.18;;;1.90;;
21175;SDS011;10746;50.178;8.186;2023-06-14T07:59:26;4.05;;;1.90;;
21175;SDS011;10746;50.178;8.186;2023-06-14T08:01:53;2.58;;;2.20;;
21175;SDS011;10746;50.178;8.186;2023-06-14T08:04:19;2.50;;;2.30;;
21175;SDS011;10746;50.178;8.186;2023-06-14T08:06:46;5.20;;;2.10;;
21175;SDS011;10746;50.178;8.186;2023-06-14T08:09:13;2.72;;;2.10;;
21175;SDS011;10746;50.178;8.186;2023-06-14T08:11:40;3.03;;;2.00;;
21175;SDS011;10746;50.178;8.186;2023-06-14T08:14:08;6.53;;;2.33;;
21175;SDS011;10746;50.178;8.186;2023-06-14T08:16:35;8.23;;;2.63;;
21175;SDS011;10746;50.178;8.186;2023-06-14T08:19:02;2.15;;;2.00;;
21175;SDS011;10746;50.178;8.186;2023-06-14T08:21:29;2.95;;;2.38;;
21175;SDS011;10746;50.178;8.186;2023-06-14T08:23:58;2.30;;;2.10;;
21175;SDS011;10746;50.178;8.186;2023-06-14T08:26:25;3.20;;;2.47;;
21175;SDS011;10746;50.178;8.186;2023-06-14T08:28:53;4.00;;;2.33;;
21175;SDS011;10746;50.178;8.186;2023-06-14T08:31:22;3.58;;;2.42;;
21175;SDS011;10746;50.178;8.186;2023-06-14T08:33:49;3.58;;;2.45;;
21175;SDS011;10746;50.178;8.186;2023-06-14T08:36:15;5.70;;;2.30;;
21175;SDS011;10746;50.178;8.186;2023-06-14T08:38:42;6.13;;;2.25;;
21175;SDS011;10746;50.178;8.186;2023-06-14T08:41:09;4.85;;;2.08;;
21175;SDS011;10746;50.178;8.186;2023-06-14T08:43:38;2.30;;;2.10;;
21175;SDS011;10746;50.178;8.186;2023-06-14T08:46:05;2.20;;;2.00;;
21175;SDS011;10746;50.178;8.186;2023-06-14T08:48:38;5.53;;;2.13;;
21175;SDS011;10746;50.178;8.186;2023-06-14T08:51:05;3.50;;;2.08;;
21175;SDS011;10746;50.178;8.186;2023-06-14T08:53:33;4.43;;;2.10;;
21175;SDS011;10746;50.178;8.186;2023-06-14T08:56:07;4.80;;;2.33;;
21175;SDS011;10746;50.178;8.186;2023-06-14T08:58:38;1.90;;;1.80;;
21175;SDS011;10746;50.178;8.186;2023-06-14T09:01:08;4.60;;;1.90;;
21175;SDS011;10746;50.178;8.186;2023-06-14T09:03:38;3.88;;;2.10;;
21175;SDS011;10746;50.178;8.186;2023-06-14T09:06:06;1.95;;;1.65;;
21175;SDS011;10746;50.178;8.186;2023-06-14T09:08:33;5.60;;;1.70;;
21175;SDS011;10746;50.178;8.186;2023-06-14T09:11:01;1.60;;;1.42;;
21175;SDS011;10746;50.178;8.186;2023-06-14T09:13:28;6.75;;;1.83;;
21175;SDS011;10746;50.178;8.186;2023-06-14T09:15:54;1.92;;;1.60;;
21175;SDS011;10746;50.178;8.186;2023-06-14T09:18:21;6.53;;;1.42;;
21175;SDS011;10746;50.178;8.186;2023-06-14T09:21:00;1.58;;;1.50;;
21175;SDS011;10746;50.178;8.186;2023-06-14T09:23:27;2.63;;;1.60;;
21175;SDS011;10746;50.178;8.186;2023-06-14T09:25:54;2.78;;;1.70;;
21175;SDS011;10746;50.178;8.186;2023-06-14T09:28:24;2.13;;;2.03;;
21175;SDS011;10746;50.178;8.186;2023-06-14T09:30:54;7.05;;;2.13;;
21175;SDS011;10746;50.178;8.186;2023-06-14T09:33:21;2.40;;;2.20;;
21175;SDS011;10746;50.178;8.186;2023-06-14T09:35:50;3.83;;;2.00;;
21175;SDS011;10746;50.178;8.186;2023-06-14T09:38:18;2.00;;;1.75;;
21175;SDS011;10746;50.178;8.186;2023-06-14T09:40:45;5.38;;;1.92;;
21175;SDS011;10746;50.178;8.186;2023-06-14T09:43:12;2.00;;;1.90;;
21175;SDS011;10746;50.178;8.186;2023-06-14T09:45:39;2.50;;;1.80;;
21175;SDS011;10746;50.178;8.186;2023-06-14T09:48:06;3.67;;;1.70;;
21175;SDS011;10746;50.178;8.186;2023-06-14T09:50:33;2.13;;;2.00;;
21175;SDS011;10746;50.178;8.186;2023-06-14T09:53:02;2.15;;;2.05;;
21175;SDS011;10746;50.178;8.186;2023-06-14T09:55:33;3.10;;;1.90;;
21175;SDS011;10746;50.178;8.186;2023-06-14T09:58:04;2.00;;;1.90;;
21175;SDS011;10746;50.178;8.186;2023-06-14T10:00:32;3.38;;;2.25;;
21175;SDS011;10746;50.178;8.186;2023-06-14T10:03:00;1.90;;;1.80;;
21175;SDS011;10746;50.178;8.186;2023-06-14T10:05:33;7.07;;;2.30;;
21175;SDS011;10746;50.178;8.186;2023-06-14T10:08:04;2.40;;;1.92;;
21175;SDS011;10746;50.178;8.186;2023-06-14T10:10:35;3.47;;;2.00;;
21175;SDS011;10746;50.178;8.186;2023-06-14T10:13:04;1.95;;;1.85;;
21175;SDS011;10746;50.178;8.186;2023-06-14T10:15:32;2.15;;;2.00;;
21175;SDS011;10746;50.178;8.186;2023-06-14T10:18:06;2.75;;;2.05;;
21175;SDS011;10746;50.178;8.186;2023-06-14T10:20:41;4.18;;;2.03;;
21175;SDS011;10746;50.178;8.186;2023-06-14T10:23:16;2.20;;;2.00;;
21175;SDS011;10746;50.178;8.186;2023-06-14T10:25:49;5.18;;;1.98;;
21175;SDS011;10746;50.178;8.186;2023-06-14T10:28:16;2.10;;;1.90;;
21175;SDS011;10746;50.178;8.186;2023-06-14T10:33:33;2.10;;;1.92;;
21175;SDS011;10746;50.178;8.186;2023-06-14T10:36:08;3.70;;;1.90;;
21175;SDS011;10746;50.178;8.186;2023-06-14T10:38:59;9.45;;;2.00;;
21175;SDS011;10746;50.178;8.186;2023-06-14T10:41:29;2.00;;;1.67;;
21175;SDS011;10746;50.178;8.186;2023-06-14T10:47:06;6.93;;;2.10;;
21175;SDS011;10746;50.178;8.186;2023-06-14T10:49:36;2.85;;;2.08;;
21175;SDS011;10746;50.178;8.186;2023-06-14T10:52:08;1.90;;;1.80;;
21175;SDS011;10746;50.178;8.186;2023-06-14T10:57:32;2.17;;;2.08;;
21175;SDS011;10746;50.178;8.186;2023-06-14T11:00:00;2.45;;;1.90;;
21175;SDS011;10746;50.178;8.186;2023-06-14T11:02:48;2.85;;;1.83;;
21175;SDS011;10746;50.178;8.186;2023-06-14T11:05:41;5.22;;;2.15;;
21175;SDS011;10746;50.178;8.186;2023-06-14T11:11:29;1.88;;;1.77;;
21175;SDS011;10746;50.178;8.186;2023-06-14T11:14:00;2.00;;;1.80;;
21175;SDS011;10746;50.178;8.186;2023-06-14T11:16:27;3.33;;;2.00;;
21175;SDS011;10746;50.178;8.186;2023-06-14T11:18:54;2.22;;;2.00;;
21175;SDS011;10746;50.178;8.186;2023-06-14T11:21:21;6.20;;;2.25;;
21175;SDS011;10746;50.178;8.186;2023-06-14T11:23:50;5.65;;;2.28;;
21175;SDS011;10746;50.178;8.186;2023-06-14T11:26:24;5.72;;;2.72;;
21175;SDS011;10746;50.178;8.186;2023-06-14T11:28:54;1.90;;;1.80;;
21175;SDS011;10746;50.178;8.186;2023-06-14T11:31:24;1.73;;;1.60;;
21175;SDS011;10746;50.178;8.186;2023-06-14T11:33:53;3.95;;;2.10;;
21175;SDS011;10746;50.178;8.186;2023-06-14T11:36:20;2.03;;;1.92;;
21175;SDS011;10746;50.178;8.186;2023-06-14T11:38:47;2.53;;;2.10;;
21175;SDS011;10746;50.178;8.186;2023-06-14T11:41:14;3.15;;;2.15;;
21175;SDS011;10746;50.178;8.186;2023-06-14T11:43:40;2.30;;;2.08;;
21175;SDS011;10746;50.178;8.186;2023-06-14T11:46:12;6.65;;;2.30;;
21175;SDS011;10746;50.178;8.186;2023-06-14T11:48:42;2.28;;;2.08;;
21175;SDS011;10746;50.178;8.186;2023-06-14T11:51:10;2.28;;;2.10;;
21175;SDS011;10746;50.178;8.186;2023-06-14T11:53:37;2.17;;;1.98;;
21175;SDS011;10746;50.178;8.186;2023-06-14T11:56:04;2.55;;;2.08;;
21175;SDS011;10746;50.178;8.186;2023-06-14T11:58:31;3.83;;;1.88;;
21175;SDS011;10746;50.178;8.186;2023-06-14T12:00:58;8.45;;;2.10;;
21175;SDS011;10746;50.178;8.186;2023-06-14T12:03:25;2.30;;;1.92;;
21175;SDS011;10746;50.178;8.186;2023-06-14T12:06:03;5.50;;;2.10;;
21175;SDS011;10746;50.178;8.186;2023-06-14T12:08:32;2.08;;;1.98;;
21175;SDS011;10746;50.178;8.186;2023-06-14T12:11:05;2.25;;;2.15;;
21175;SDS011;10746;50.178;8.186;2023-06-14T12:13:33;3.75;;;1.92;;
21175;SDS011;10746;50.178;8.186;2023-06-14T12:16:01;4.57;;;2.50;;
21175;SDS011;10746;50.178;8.186;2023-06-14T12:18:32;2.65;;;2.00;;
21175;SDS011;10746;50.178;8.186;2023-06-14T12:21:00;2.45;;;2.10;;
21175;SDS011;10746;50.178;8.186;2023-06-14T12:23:44;2.42;;;2.13;;
21175;SDS011;10746;50.178;8.186;2023-06-14T12:26:12;3.22;;;2.15;;
21175;SDS011;10746;50.178;8.186;2023-06-14T12:28:40;2.30;;;2.10;;
21175;SDS011;10746;50.178;8.186;2023-06-14T12:31:08;2.70;;;1.90;;
21175;SDS011;10746;50.178;8.186;2023-06-14T12:33:35;3.67;;;2.10;;
21175;SDS011;10746;50.178;8.186;2023-06-14T12:36:04;6.90;;;2.05;;
21175;SDS011;10746;50.178;8.186;2023-06-14T12:38:32;6.53;;;1.88;;
21175;SDS011;10746;50.178;8.186;2023-06-14T12:40:59;2.25;;;2.13;;
21175;SDS011;10746;50.178;8.186;2023-06-14T12:43:26;4.32;;;2.10;;
21175;SDS011;10746;50.178;8.186;2023-06-14T12:45:53;2.13;;;1.98;;
21175;SDS011;10746;50.178;8.186;2023-06-14T12:48:20;1.90;;;1.80;;
21175;SDS011;10746;50.178;8.186;2023-06-14T12:50:47;2.10;;;1.90;;
21175;SDS011;10746;50.178;8.186;2023-06-14T12:53:15;2.38;;;2.17;;
21175;SDS011;10746;50.178;8.186;2023-06-14T12:55:42;8.40;;;2.40;;
21175;SDS011;10746;50.178;8.186;2023-06-14T12:58:09;6.68;;;2.30;;
21175;SDS011;10746;50.178;8.186;2023-06-14T13:00:37;2.83;;;2.05;;
21175;SDS011;10746;50.178;8.186;2023-06-14T13:03:05;2.30;;;2.10;;
21175;SDS011;10746;50.178;8.186;2023-06-14T13:05:31;2.22;;;2.13;;
21175;SDS011;10746;50.178;8.186;2023-06-14T13:07:58;2.08;;;1.98;;
21175;SDS011;10746;50.178;8.186;2023-06-14T13:10:27;2.10;;;2.00;;
21175;SDS011;10746;50.178;8.186;2023-06-14T13:12:54;1.90;;;1.80;;
21175;SDS011;10746;50.178;8.186;2023-06-14T13:15:23;2.17;;;1.98;;
21175;SDS011;10746;50.178;8.186;2023-06-14T13:17:49;5.32;;;1.80;;
21175;SDS011;10746;50.178;8.186;2023-06-14T13:20:16;2.22;;;1.90;;
21175;SDS011;10746;50.178;8.186;2023-06-14T13:22:43;3.55;;;2.00;;
21175;SDS011;10746;50.178;8.186;2023-06-14T13:25:10;3.00;;;1.95;;
21175;SDS011;10746;50.178;8.186;2023-06-14T13:27:38;2.17;;;1.98;;
21175;SDS011;10746;50.178;8.186;2023-06-14T13:30:05;3.28;;;1.98;;
21175;SDS011;10746;50.178;8.186;2023-06-14T13:32:34;1.80;;;1.70;;
21175;SDS011;10746;50.178;8.186;2023-06-14T13:35:01;3.17;;;2.00;;
21175;SDS011;10746;50.178;8.186;2023-06-14T13:37:29;2.53;;;1.85;;
21175;SDS011;10746;50.178;8.186;2023-06-14T13:39:55;2.75;;;2.00;;
21175;SDS011;10746;50.178;8.186;2023-06-14T13:42:22;2.53;;;2.10;;
21175;SDS011;10746;50.178;8.186;2023-06-14T13:44:50;1.95;;;1.85;;
21175;SDS011;10746;50.178;8.186;2023-06-14T13:47:17;4.47;;;1.98;;
21175;SDS011;10746;50.178;8.186;2023-06-14T13:49:44;1.75;;;1.63;;
21175;SDS011;10746;50.178;8.186;2023-06-14T13:52:11;3.67;;;2.13;;
21175;SDS011;10746;50.178;8.186;2023-06-14T13:54:38;3.53;;;2.08;;
21175;SDS011;10746;50.178;8.186;2023-06-14T13:57:05;2.63;;;2.10;;
21175;SDS011;10746;50.178;8.186;2023-06-14T13:59:32;6.13;;;2.00;;
21175;SDS011;10746;50.178;8.186;2023-06-14T14:02:01;2.08;;;1.90;;
21175;SDS011;10746;50.178;8.186;2023-06-14T14:04:28;2.30;;;2.10;;
21175;SDS011;10746;50.178;8.186;2023-06-14T14:06:55;2.20;;;2.00;;
21175;SDS011;10746;50.178;8.186;2023-06-14T14:09:22;2.40;;;2.20;;
21175;SDS011;10746;50.178;8.186;2023-06-14T14:11:49;2.38;;;2.22;;
21175;SDS011;10746;50.178;8.186;2023-06-14T14:14:15;3.00;;;1.98;;
21175;SDS011;10746;50.178;8.186;2023-06-14T14:16:42;6.53;;;2.20;;
21175;SDS011;10746;50.178;8.186;2023-06-14T14:19:10;2.10;;;2.00;;
21175;SDS011;10746;50.178;8.186;2023-06-14T14:21:37;4.82;;;2.05;;
21175;SDS011;10746;50.178;8.186;2023-06-14T14:24:04;2.47;;;2.20;;
21175;SDS011;10746;50.178;8.186;2023-06-14T14:26:31;3.92;;;2.28;;
21175;SDS011;10746;50.178;8.186;2023-06-14T14:28:58;5.35;;;2.30;;
21175;SDS011;10746;50.178;8.186;2023-06-14T14:31:25;8.40;;;2.15;;
21175;SDS011;10746;50.178;8.186;2023-06-14T14:33:52;5.07;;;2.13;;
21175;SDS011;10746;50.178;8.186;2023-06-14T14:36:20;6.45;;;2.45;;
21175;SDS011;10746;50.178;8.186;2023-06-14T14:38:47;2.97;;;2.38;;
21175;SDS011;10746;50.178;8.186;2023-06-14T14:41:14;3.42;;;2.30;;
21175;SDS011;10746;50.178;8.186;2023-06-14T14:43:40;2.35;;;2.03;;
21175;SDS011;10746;50.178;8.186;2023-06-14T14:46:07;2.55;;;2.28;;
21175;SDS011;10746;50.178;8.186;2023-06-14T14:48:34;5.72;;;2.33;;
21175;SDS011;10746;50.178;8.186;2023-06-14T14:51:01;2.60;;;2.20;;
21175;SDS011;10746;50.178;8.186;2023-06-14T14:53:29;2.38;;;2.17;;
21175;SDS011;10746;50.178;8.186;2023-06-14T14:55:56;2.42;;;2.10;;
21175;SDS011;10746;50.178;8.186;2023-06-14T14:58:23;2.90;;;2.30;;
21175;SDS011;10746;50.178;8.186;2023-06-14T15:00:49;2.65;;;2.00;;
21175;SDS011;10746;50.178;8.186;2023-06-14T15:03:16;2.58;;;2.38;;
21175;SDS011;10746;50.178;8.186;2023-06-14T15:05:43;3.88;;;2.15;;
21175;SDS011;10746;50.178;8.186;2023-06-14T15:08:10;2.97;;;2.20;;